Time;durP1;ratioP1;P1;durP2;ratioP2;P2;SDS_P1;SDS_P2;PMS_P1;PMS_P2;Temp;Humidity;BMP_temperature;BMP_pressure;BME280_temperature;BME280_humidity;BME280_pressure;Samples;Min_cycle;Max_cycle;Signal;HPM_P1;HPM_P2
2023/05/21 00:00:00;;;;;;;10.03;2.40;;;14.80;99.90;;;;;;5055932;28;20733;-59
2023/05/21 00:02:28;;;;;;;4.90;1.80;;;14.80;99.90;;;;;;5055253;28;20250;-60
2023/05/21 00:04:54;;;;;;;4.97;2.17;;;14.70;99.90;;;;;;5057072;28;20165;-60
2023/05/21 00:07:20;;;;;;;3.47;1.93;;;14.70;99.90;;;;;;5056216;28;20276;-61
2023/05/21 00:09:45;;;;;;;6.93;2.07;;;14.70;99.90;;;;;;5057453;28;20174;-61
2023/05/21 00:12:11;;;;;;;3.83;2.13;;;14.70;99.90;;;;;;5056014;28;20193;-60
2023/05/21 00:14:36;;;;;;;7.20;2.37;;;14.70;99.90;;;;;;5056196;28;20572;-60
2023/05/21 00:17:02;;;;;;;3.50;1.73;;;14.60;99.90;;;;;;5056168;28;20181;-60
2023/05/21 00:19:28;;;;;;;3.77;1.90;;;14.60;99.90;;;;;;5054905;28;20833;-60
2023/05/21 00:21:53;;;;;;;4.37;1.83;;;14.60;99.90;;;;;;5054319;28;20263;-59
2023/05/21 00:24:19;;;;;;;3.63;2.00;;;14.60;99.90;;;;;;5054004;28;20659;-60
2023/05/21 00:26:44;;;;;;;5.40;1.90;;;14.60;99.90;;;;;;5054294;28;20169;-61
2023/05/21 00:29:10;;;;;;;3.33;1.97;;;14.60;99.90;;;;;;5055415;28;20188;-60
2023/05/21 00:31:35;;;;;;;5.00;1.90;;;14.50;99.90;;;;;;5053907;28;20480;-60
2023/05/21 00:34:01;;;;;;;2.97;1.93;;;14.50;99.90;;;;;;5054064;28;20260;-60
2023/05/21 00:36:26;;;;;;;5.23;1.80;;;14.50;99.90;;;;;;5055317;28;20174;-60
2023/05/21 00:38:52;;;;;;;3.70;1.77;;;14.50;99.90;;;;;;5055817;28;20181;-60
2023/05/21 00:41:18;;;;;;;2.67;1.40;;;14.50;99.90;;;;;;5055564;28;20165;-60
2023/05/21 00:43:51;;;;;;;7.93;2.60;;;14.50;99.90;;;;;;5055340;28;20712;-61
2023/05/21 00:46:19;;;;;;;7.60;2.57;;;14.50;99.90;;;;;;5055546;28;20185;-61
2023/05/21 00:48:46;;;;;;;5.23;1.80;;;14.40;99.90;;;;;;5056155;28;20666;-60
2023/05/21 00:51:13;;;;;;;5.10;3.10;;;14.40;99.90;;;;;;5055733;28;20727;-59
2023/05/21 00:53:39;;;;;;;6.77;1.97;;;14.40;99.90;;;;;;5056111;28;20300;-60
2023/05/21 00:56:05;;;;;;;3.97;1.97;;;14.40;99.90;;;;;;5054988;28;20181;-60
2023/05/21 00:58:32;;;;;;;6.30;2.37;;;14.40;99.90;;;;;;5054925;28;20174;-60
2023/05/21 01:01:02;;;;;;;3.23;1.90;;;14.40;99.90;;;;;;5054975;28;20476;-61
2023/05/21 01:03:29;;;;;;;3.30;1.80;;;14.30;99.90;;;;;;5055140;28;20146;-60
2023/05/21 01:05:59;;;;;;;5.23;2.13;;;14.30;99.90;;;;;;5053410;28;20291;-59
2023/05/21 01:08:27;;;;;;;2.80;1.90;;;14.30;99.90;;;;;;5054933;28;20178;-59
2023/05/21 01:10:54;;;;;;;5.03;1.90;;;14.30;99.90;;;;;;5053659;28;20464;-61
2023/05/21 01:13:22;;;;;;;5.17;1.80;;;14.30;99.90;;;;;;5054423;28;20205;-60
2023/05/21 01:15:48;;;;;;;5.37;2.13;;;14.20;99.90;;;;;;5054515;28;20165;-60
2023/05/21 01:18:14;;;;;;;3.77;1.63;;;14.20;99.90;;;;;;5054069;28;20225;-59
2023/05/21 01:20:46;;;;;;;5.67;2.00;;;14.20;99.90;;;;;;5054487;28;20555;-59
2023/05/21 01:23:18;;;;;;;6.30;2.07;;;14.20;99.90;;;;;;5055241;28;20561;-59
2023/05/21 01:25:44;;;;;;;5.10;1.80;;;14.20;99.90;;;;;;5054686;28;20180;-60
2023/05/21 01:28:15;;;;;;;3.63;1.77;;;14.20;99.90;;;;;;5055650;28;20169;-60
2023/05/21 01:30:41;;;;;;;4.43;2.10;;;14.20;99.90;;;;;;5054454;28;20177;-59
2023/05/21 01:33:28;;;;;;;7.37;2.20;;;14.20;99.90;;;;;;5053915;28;20589;-60
2023/05/21 01:36:05;;;;;;;4.40;1.77;;;14.20;99.90;;;;;;5055111;28;20153;-60
2023/05/21 01:38:56;;;;;;;4.13;1.87;;;14.20;99.90;;;;;;5055650;28;20176;-61
2023/05/21 01:41:24;;;;;;;4.43;1.80;;;14.10;99.90;;;;;;5055662;28;20175;-60
2023/05/21 01:43:52;;;;;;;6.07;1.90;;;14.10;99.90;;;;;;5055378;28;20165;-60
2023/05/21 01:46:25;;;;;;;7.00;2.00;;;14.10;99.90;;;;;;5054964;28;20162;-60
2023/05/21 01:48:53;;;;;;;2.60;1.40;;;14.10;99.90;;;;;;5055883;28;20272;-60
2023/05/21 01:51:27;;;;;;;4.10;1.93;;;14.10;99.90;;;;;;5055952;28;20473;-60
2023/05/21 01:53:53;;;;;;;3.47;1.47;;;14.10;99.90;;;;;;5055877;28;20181;-62
2023/05/21 01:56:21;;;;;;;5.93;2.00;;;14.00;99.90;;;;;;5055780;28;20163;-61
2023/05/21 01:58:48;;;;;;;4.30;2.17;;;14.00;99.90;;;;;;5055642;28;20173;-61
2023/05/21 02:01:14;;;;;;;7.63;1.77;;;14.00;99.90;;;;;;5055756;28;20546;-61
2023/05/21 02:03:39;;;;;;;3.43;1.60;;;14.00;99.90;;;;;;5055331;28;20195;-61
2023/05/21 02:06:05;;;;;;;9.00;2.20;;;14.00;99.90;;;;;;5054704;28;20161;-61
2023/05/21 02:08:30;;;;;;;4.13;1.77;;;13.90;99.90;;;;;;5055587;28;20217;-60
2023/05/21 02:10:56;;;;;;;4.87;2.30;;;13.90;99.90;;;;;;5055374;28;20184;-59
2023/05/21 02:13:23;;;;;;;4.03;1.80;;;14.00;99.90;;;;;;5055055;28;20215;-60
2023/05/21 02:15:50;;;;;;;3.33;1.63;;;14.00;99.90;;;;;;5054742;28;20676;-60
2023/05/21 02:18:17;;;;;;;3.23;1.70;;;13.90;99.90;;;;;;5054156;28;20222;-58
2023/05/21 02:20:43;;;;;;;4.57;2.13;;;13.90;99.90;;;;;;5054536;28;20166;-60
2023/05/21 02:23:08;;;;;;;5.37;1.80;;;13.90;99.90;;;;;;5055392;28;20247;-60
2023/05/21 02:25:34;;;;;;;6.87;1.80;;;13.90;99.90;;;;;;5055369;28;20165;-60
2023/05/21 02:28:01;;;;;;;6.83;1.67;;;13.90;99.90;;;;;;5055233;28;20170;-59
2023/05/21 02:30:26;;;;;;;3.53;1.90;;;13.90;99.90;;;;;;5055795;28;20166;-60
2023/05/21 02:32:54;;;;;;;3.43;1.90;;;13.90;99.90;;;;;;5057017;28;20263;-59
2023/05/21 02:35:19;;;;;;;6.50;1.80;;;13.80;99.90;;;;;;5057394;28;20561;-59
2023/05/21 02:37:45;;;;;;;5.23;1.90;;;13.80;99.90;;;;;;5057655;28;20173;-62
2023/05/21 02:40:11;;;;;;;5.90;2.10;;;13.80;99.90;;;;;;5057561;28;20303;-58
2023/05/21 02:42:38;;;;;;;4.63;2.40;;;13.80;99.90;;;;;;5056767;28;20271;-60
2023/05/21 02:45:08;;;;;;;7.63;2.77;;;13.80;99.90;;;;;;5057161;28;20170;-60
2023/05/21 02:47:34;;;;;;;4.97;2.13;;;13.80;99.90;;;;;;5058236;28;20204;-61
2023/05/21 02:50:00;;;;;;;6.20;2.37;;;13.70;99.90;;;;;;5057920;28;20200;-60
2023/05/21 02:52:26;;;;;;;3.73;2.50;;;13.70;99.90;;;;;;5056584;28;20205;-62
2023/05/21 02:54:52;;;;;;;3.53;2.00;;;13.70;99.90;;;;;;5058456;28;20311;-59
2023/05/21 02:57:17;;;;;;;5.13;1.80;;;13.70;99.90;;;;;;5058650;28;20235;-60
2023/05/21 02:59:53;;;;;;;6.37;2.20;;;13.70;99.90;;;;;;5058493;28;20181;-60
2023/05/21 03:02:19;;;;;;;2.17;1.63;;;13.70;99.90;;;;;;5058691;28;20167;-60
2023/05/21 03:04:45;;;;;;;3.40;1.80;;;13.60;99.90;;;;;;5058319;28;20174;-60
2023/05/21 03:07:13;;;;;;;4.10;1.80;;;13.60;99.90;;;;;;5056832;28;20228;-60
2023/05/21 03:09:40;;;;;;;3.33;1.90;;;13.60;99.90;;;;;;5051719;28;20189;-58
2023/05/21 03:12:06;;;;;;;7.17;2.20;;;13.60;99.90;;;;;;5049609;28;20283;-60
2023/05/21 03:14:32;;;;;;;6.10;2.10;;;13.50;99.90;;;;;;5050081;28;20165;-60
2023/05/21 03:16:58;;;;;;;7.03;2.10;;;13.50;99.90;;;;;;5050647;28;20300;-60
2023/05/21 03:19:23;;;;;;;4.20;2.00;;;13.60;99.90;;;;;;5049603;28;20218;-60
2023/05/21 03:21:49;;;;;;;6.17;2.50;;;13.60;99.90;;;;;;5053440;28;20180;-58
2023/05/21 03:24:15;;;;;;;8.60;2.50;;;13.50;99.90;;;;;;5056505;28;20238;-60
2023/05/21 03:26:40;;;;;;;4.00;2.47;;;13.50;99.90;;;;;;5057322;28;20177;-60
2023/05/21 03:29:06;;;;;;;5.03;2.10;;;13.50;99.90;;;;;;5056766;28;20464;-60
2023/05/21 03:31:31;;;;;;;6.83;2.47;;;13.50;99.90;;;;;;5057265;28;20199;-60
2023/05/21 03:33:57;;;;;;;3.17;1.70;;;13.50;99.90;;;;;;5056450;28;20169;-61
2023/05/21 03:36:30;;;;;;;8.93;2.60;;;13.50;99.90;;;;;;5055679;28;20260;-61
2023/05/21 03:38:55;;;;;;;5.53;2.33;;;13.50;99.90;;;;;;5056771;28;20176;-61
2023/05/21 03:41:21;;;;;;;4.67;2.60;;;13.40;99.90;;;;;;5057394;28;20158;-59
2023/05/21 03:43:46;;;;;;;6.57;2.50;;;13.50;99.90;;;;;;5058558;28;20528;-60
2023/05/21 03:46:12;;;;;;;4.23;1.90;;;13.40;99.90;;;;;;5057370;28;20886;-61
2023/05/21 03:48:37;;;;;;;6.03;2.93;;;13.40;99.90;;;;;;5057814;28;20168;-61
2023/05/21 03:51:03;;;;;;;7.10;2.90;;;13.40;99.90;;;;;;5057387;28;20172;-60
2023/05/21 03:53:29;;;;;;;4.10;2.60;;;13.40;99.90;;;;;;5056626;28;20209;-61
2023/05/21 03:55:55;;;;;;;3.63;2.10;;;13.40;99.90;;;;;;5056608;28;20236;-61
2023/05/21 03:58:23;;;;;;;7.20;3.00;;;13.40;99.90;;;;;;5057784;28;20165;-59
2023/05/21 04:00:50;;;;;;;5.07;2.33;;;13.40;99.90;;;;;;5056833;28;20173;-59
2023/05/21 04:03:16;;;;;;;4.17;2.20;;;13.40;99.90;;;;;;5055023;28;20491;-61
2023/05/21 04:05:42;;;;;;;8.77;2.40;;;13.40;99.90;;;;;;5055546;28;20554;-60
2023/05/21 04:08:08;;;;;;;5.53;2.17;;;13.40;99.90;;;;;;5056581;28;20576;-60
2023/05/21 04:10:34;;;;;;;5.87;3.10;;;13.40;99.90;;;;;;5055985;28;20568;-61
2023/05/21 04:12:59;;;;;;;8.10;3.23;;;13.40;99.90;;;;;;5055662;28;20193;-62
2023/05/21 04:15:26;;;;;;;3.87;2.47;;;13.40;99.90;;;;;;5054618;28;20265;-62
2023/05/21 04:17:53;;;;;;;4.37;2.20;;;13.40;99.90;;;;;;5053806;28;20280;-59
2023/05/21 04:20:19;;;;;;;4.97;2.50;;;13.40;99.90;;;;;;5052817;28;20166;-60
2023/05/21 04:22:44;;;;;;;5.00;2.40;;;13.40;99.90;;;;;;5050244;28;20249;-58
2023/05/21 04:25:10;;;;;;;6.23;2.50;;;13.40;99.90;;;;;;5051530;28;20205;-60
2023/05/21 04:27:36;;;;;;;5.43;2.70;;;13.50;99.90;;;;;;5050664;28;20500;-60
2023/05/21 04:30:03;;;;;;;7.10;2.70;;;13.50;99.90;;;;;;5052240;28;20647;-61
2023/05/21 04:32:33;;;;;;;6.30;2.73;;;13.50;99.90;;;;;;5053759;28;20574;-61
2023/05/21 04:34:59;;;;;;;6.10;2.63;;;13.60;99.90;;;;;;5054621;28;20587;-60
2023/05/21 04:37:26;;;;;;;3.17;2.13;;;13.50;99.90;;;;;;5055399;28;20165;-60
2023/05/21 04:39:54;;;;;;;2.73;2.00;;;13.60;99.90;;;;;;5056515;28;20149;-59
2023/05/21 04:42:22;;;;;;;5.60;2.43;;;13.60;99.90;;;;;;5056515;28;20149;-60
2023/05/21 04:44:49;;;;;;;5.37;2.33;;;13.60;99.90;;;;;;5054585;28;20166;-61
2023/05/21 04:47:15;;;;;;;6.63;2.70;;;13.70;99.90;;;;;;5055677;28;20166;-60
2023/05/21 04:49:40;;;;;;;7.27;2.70;;;13.70;99.90;;;;;;5054539;28;20231;-61
2023/05/21 04:52:07;;;;;;;4.17;2.70;;;13.60;99.90;;;;;;5055365;28;20200;-61
2023/05/21 04:54:33;;;;;;;3.90;2.27;;;13.70;99.90;;;;;;5054469;28;20181;-60
2023/05/21 04:56:58;;;;;;;7.50;2.43;;;13.70;99.90;;;;;;5056640;28;20177;-60
2023/05/21 04:59:24;;;;;;;6.70;2.93;;;13.70;99.90;;;;;;5056241;28;20254;-60
2023/05/21 05:01:50;;;;;;;4.67;2.17;;;13.70;99.90;;;;;;5055475;28;20196;-60
2023/05/21 05:04:15;;;;;;;7.27;2.97;;;13.70;99.90;;;;;;5055655;28;20633;-60
2023/05/21 05:06:41;;;;;;;3.70;2.53;;;13.70;99.90;;;;;;5054375;28;20183;-61
2023/05/21 05:09:07;;;;;;;6.47;2.97;;;13.80;99.90;;;;;;5054089;28;20288;-59
2023/05/21 05:11:33;;;;;;;6.17;2.90;;;13.70;99.90;;;;;;5053770;28;20176;-60
2023/05/21 05:13:58;;;;;;;7.43;2.87;;;13.70;99.90;;;;;;5053833;28;20165;-60
2023/05/21 05:16:24;;;;;;;7.07;3.00;;;13.80;99.90;;;;;;5051407;28;20611;-60
2023/05/21 05:18:51;;;;;;;4.17;2.73;;;13.80;99.90;;;;;;5050339;28;20225;-60
2023/05/21 05:21:17;;;;;;;5.23;2.90;;;13.80;99.90;;;;;;5053222;28;20193;-61
2023/05/21 05:23:42;;;;;;;5.70;3.30;;;13.80;99.90;;;;;;5051753;28;20585;-60
2023/05/21 05:26:09;;;;;;;6.07;2.93;;;13.80;99.90;;;;;;5051780;28;20173;-61
2023/05/21 05:28:34;;;;;;;8.53;2.90;;;13.90;99.90;;;;;;5052047;28;20821;-61
2023/05/21 05:31:00;;;;;;;4.77;2.33;;;13.80;99.90;;;;;;5053238;28;20188;-60
2023/05/21 05:33:26;;;;;;;6.07;2.47;;;13.90;99.90;;;;;;5053699;28;20184;-60
2023/05/21 05:35:51;;;;;;;7.00;2.87;;;13.90;99.90;;;;;;5055156;28;20167;-60
2023/05/21 05:38:17;;;;;;;5.43;2.80;;;13.90;99.90;;;;;;5053308;28;20170;-60
2023/05/21 05:40:42;;;;;;;8.20;3.37;;;13.90;99.90;;;;;;5055568;28;20214;-62
2023/05/21 05:43:08;;;;;;;5.13;2.80;;;13.90;99.90;;;;;;5053133;28;20161;-60
2023/05/21 05:45:34;;;;;;;5.27;2.90;;;13.90;99.90;;;;;;5054151;28;20244;-61
2023/05/21 05:47:59;;;;;;;4.57;2.83;;;13.90;99.90;;;;;;5053507;28;20272;-60
2023/05/21 05:50:26;;;;;;;6.73;2.77;;;13.90;99.90;;;;;;5052939;28;20197;-59
2023/05/21 05:52:52;;;;;;;6.73;3.13;;;14.00;99.90;;;;;;5050566;28;20707;-60
2023/05/21 05:55:17;;;;;;;4.10;1.80;;;14.00;99.90;;;;;;5052933;28;20220;-60
2023/05/21 05:57:43;;;;;;;6.00;3.60;;;14.00;99.90;;;;;;5051568;28;20176;-60
2023/05/21 06:00:09;;;;;;;3.47;2.50;;;14.10;99.90;;;;;;5053814;28;20173;-60
2023/05/21 06:02:36;;;;;;;3.97;2.23;;;14.10;99.90;;;;;;5053829;28;20282;-63
2023/05/21 06:05:02;;;;;;;3.87;3.13;;;14.10;99.90;;;;;;5055294;28;20173;-60
2023/05/21 06:07:28;;;;;;;4.13;3.00;;;14.20;99.90;;;;;;5056441;28;20235;-60
2023/05/21 06:09:53;;;;;;;4.47;3.20;;;14.20;99.90;;;;;;5054923;28;20177;-60
2023/05/21 06:12:19;;;;;;;5.73;3.10;;;14.20;99.90;;;;;;5054344;28;20286;-60
2023/05/21 06:14:46;;;;;;;4.50;3.03;;;14.30;99.90;;;;;;5051487;28;20216;-60
2023/05/21 06:17:11;;;;;;;4.13;3.47;;;14.30;99.90;;;;;;5051294;28;20250;-60
2023/05/21 06:19:38;;;;;;;8.50;3.20;;;14.30;99.90;;;;;;5048107;28;20605;-60
2023/05/21 06:22:04;;;;;;;6.13;3.00;;;14.40;99.90;;;;;;5053756;28;20711;-60
2023/05/21 06:24:29;;;;;;;4.87;3.40;;;14.40;99.90;;;;;;5057153;28;20169;-59
2023/05/21 06:26:55;;;;;;;8.17;4.10;;;14.40;99.90;;;;;;5055829;28;20192;-60
2023/05/21 06:29:20;;;;;;;9.03;3.50;;;14.50;99.90;;;;;;5056748;28;20177;-60
2023/05/21 06:31:46;;;;;;;4.93;3.00;;;14.50;99.90;;;;;;5054482;28;20384;-60
2023/05/21 06:34:12;;;;;;;5.30;3.37;;;14.60;99.90;;;;;;5053478;28;20776;-60
2023/05/21 06:36:38;;;;;;;7.63;4.07;;;14.60;99.90;;;;;;5054502;28;20683;-60
2023/05/21 06:39:03;;;;;;;6.90;3.57;;;14.60;99.90;;;;;;5053659;28;20172;-60
2023/05/21 06:41:29;;;;;;;9.43;3.90;;;14.70;99.90;;;;;;5053004;28;20174;-60
2023/05/21 06:43:55;;;;;;;6.10;3.60;;;14.70;99.90;;;;;;5054836;28;20600;-60
2023/05/21 06:46:21;;;;;;;6.80;4.00;;;14.80;99.90;;;;;;5055641;28;20264;-60
2023/05/21 06:48:46;;;;;;;6.77;4.10;;;14.80;99.90;;;;;;5055894;28;20268;-60
2023/05/21 06:51:12;;;;;;;5.53;3.73;;;14.90;99.90;;;;;;5055785;28;20219;-60
2023/05/21 06:53:38;;;;;;;6.97;3.83;;;14.90;99.90;;;;;;5055014;28;20266;-61
2023/05/21 06:56:04;;;;;;;6.03;4.57;;;14.90;99.90;;;;;;5053499;28;20177;-61
2023/05/21 06:58:30;;;;;;;4.63;3.40;;;14.90;99.90;;;;;;5053697;28;20757;-60
2023/05/21 07:01:00;;;;;;;5.33;3.73;;;15.00;99.90;;;;;;5052865;28;20177;-61
2023/05/21 07:03:26;;;;;;;7.77;4.80;;;15.00;99.90;;;;;;5053487;28;20231;-59
2023/05/21 07:05:52;;;;;;;6.27;4.07;;;15.00;99.90;;;;;;5050769;28;20169;-60
2023/05/21 07:08:18;;;;;;;6.57;4.63;;;15.10;99.90;;;;;;5049992;28;20566;-61
2023/05/21 07:10:45;;;;;;;6.23;4.27;;;15.10;99.90;;;;;;5052103;28;20180;-61
2023/05/21 07:13:10;;;;;;;6.10;4.73;;;15.20;99.90;;;;;;5051105;28;20582;-61
2023/05/21 07:15:36;;;;;;;6.90;5.00;;;15.20;99.90;;;;;;5052412;28;20625;-61
2023/05/21 07:18:02;;;;;;;7.83;4.40;;;15.30;99.90;;;;;;5050206;28;20206;-61
2023/05/21 07:20:28;;;;;;;5.93;4.30;;;15.30;99.90;;;;;;5049991;28;20168;-61
2023/05/21 07:22:53;;;;;;;6.30;5.10;;;15.30;99.90;;;;;;5049783;28;20238;-61
2023/05/21 07:25:19;;;;;;;5.80;5.00;;;15.40;99.90;;;;;;5051455;28;20178;-61
2023/05/21 07:27:44;;;;;;;8.93;5.17;;;15.40;99.90;;;;;;5051412;28;20192;-60
2023/05/21 07:30:13;;;;;;;7.33;5.00;;;15.40;99.90;;;;;;5049662;28;20173;-60
2023/05/21 07:32:38;;;;;;;6.93;5.60;;;15.50;99.90;;;;;;5050453;28;20189;-61
2023/05/21 07:35:05;;;;;;;7.23;5.50;;;15.50;99.90;;;;;;5048429;28;20246;-61
2023/05/21 07:37:31;;;;;;;8.63;5.10;;;15.60;99.90;;;;;;5046058;28;20264;-61
2023/05/21 07:39:59;;;;;;;7.80;5.03;;;15.60;99.90;;;;;;5045780;28;20264;-61
2023/05/21 07:42:25;;;;;;;8.10;5.23;;;15.60;99.90;;;;;;5045409;28;20580;-60
2023/05/21 07:44:51;;;;;;;8.40;5.43;;;15.70;99.90;;;;;;5047603;28;20246;-61
2023/05/21 07:47:17;;;;;;;10.00;5.27;;;15.70;99.90;;;;;;5046713;28;20170;-61
2023/05/21 07:49:43;;;;;;;7.63;5.80;;;15.70;99.90;;;;;;5047690;28;20182;-60
2023/05/21 07:52:08;;;;;;;8.43;6.27;;;15.80;99.90;;;;;;5048840;28;20211;-60
2023/05/21 07:54:34;;;;;;;7.73;5.50;;;15.90;99.90;;;;;;5047948;28;20203;-60
2023/05/21 07:57:03;;;;;;;8.17;6.03;;;15.90;99.90;;;;;;5049752;28;20174;-60
2023/05/21 07:59:29;;;;;;;6.70;5.53;;;15.90;99.90;;;;;;5048797;28;20174;-60
2023/05/21 08:01:54;;;;;;;7.83;6.00;;;16.00;99.90;;;;;;5046929;28;20176;-60
2023/05/21 08:04:20;;;;;;;11.23;6.50;;;16.10;99.90;;;;;;5047569;28;20169;-61
2023/05/21 08:06:47;;;;;;;7.87;5.50;;;16.10;99.90;;;;;;5050243;28;20190;-60
2023/05/21 08:09:13;;;;;;;7.20;5.93;;;16.20;99.90;;;;;;5049565;28;20242;-60
2023/05/21 08:11:38;;;;;;;8.10;5.93;;;16.20;99.90;;;;;;5049081;28;20272;-61
2023/05/21 08:14:04;;;;;;;8.53;6.40;;;16.30;99.90;;;;;;5049725;28;20234;-61
2023/05/21 08:16:30;;;;;;;8.47;7.20;;;16.30;99.90;;;;;;5040585;28;20223;-60
2023/05/21 08:18:56;;;;;;;8.27;6.07;;;16.30;99.90;;;;;;5038414;28;20233;-62
2023/05/21 08:21:22;;;;;;;7.80;6.90;;;16.40;99.90;;;;;;5041950;28;20515;-60
2023/05/21 08:23:47;;;;;;;8.23;6.50;;;16.40;99.90;;;;;;5047735;28;20565;-60
2023/05/21 08:26:16;;;;;;;11.63;8.23;;;16.50;99.90;;;;;;5047525;28;20177;-60
2023/05/21 08:28:42;;;;;;;7.43;6.57;;;16.50;99.90;;;;;;5048584;28;20861;-61
2023/05/21 08:31:07;;;;;;;9.10;6.40;;;16.60;99.90;;;;;;5051636;28;20185;-61
2023/05/21 08:33:37;;;;;;;9.93;7.00;;;16.60;99.90;;;;;;5049811;28;20239;-60
2023/05/21 08:36:06;;;;;;;10.17;6.40;;;16.70;99.90;;;;;;5048892;28;20229;-61
2023/05/21 08:38:33;;;;;;;13.33;7.03;;;16.70;99.90;;;;;;5049324;28;20737;-60
2023/05/21 08:40:59;;;;;;;11.13;7.00;;;16.80;99.90;;;;;;5049518;28;20173;-61
2023/05/21 08:43:27;;;;;;;9.80;7.27;;;16.80;99.90;;;;;;5048182;28;20185;-61
2023/05/21 08:45:54;;;;;;;9.70;6.80;;;16.90;99.90;;;;;;5046640;28;20554;-59
2023/05/21 08:48:22;;;;;;;9.57;7.33;;;16.90;99.90;;;;;;5047729;28;20250;-61
2023/05/21 08:50:52;;;;;;;9.47;7.77;;;16.90;99.90;;;;;;5049322;28;20172;-60
2023/05/21 08:53:18;;;;;;;9.47;7.70;;;17.00;99.90;;;;;;5049660;28;20235;-60
2023/05/21 08:55:45;;;;;;;7.93;7.13;;;17.00;99.90;;;;;;5048379;28;20471;-61
2023/05/21 08:58:12;;;;;;;9.23;8.30;;;17.10;99.90;;;;;;5050997;28;20205;-61
2023/05/21 09:00:40;;;;;;;9.13;7.53;;;17.10;99.90;;;;;;5050056;28;20158;-60
2023/05/21 09:03:11;;;;;;;12.00;8.13;;;17.10;99.90;;;;;;5047946;28;20183;-61
2023/05/21 09:05:42;;;;;;;9.63;8.63;;;17.20;99.90;;;;;;5046431;28;20181;-60
2023/05/21 09:08:26;;;;;;;8.37;7.33;;;17.20;99.90;;;;;;5043952;28;20185;-61
2023/05/21 09:10:54;;;;;;;8.73;7.30;;;17.30;99.90;;;;;;5028904;28;20182;-60
2023/05/21 09:13:20;;;;;;;13.50;9.10;;;17.30;99.90;;;;;;5044498;28;20493;-61
2023/05/21 09:15:46;;;;;;;11.33;7.73;;;17.40;99.90;;;;;;5042291;28;20181;-60
2023/05/21 09:18:13;;;;;;;9.37;7.43;;;17.40;99.90;;;;;;5036014;28;20245;-60
2023/05/21 09:20:40;;;;;;;8.90;7.67;;;17.50;99.90;;;;;;5042915;28;20179;-60
2023/05/21 09:23:15;;;;;;;10.60;8.37;;;17.50;99.90;;;;;;5045955;28;20200;-58
2023/05/21 09:25:46;;;;;;;11.03;8.10;;;17.60;99.90;;;;;;5047264;28;20781;-60
2023/05/21 09:28:13;;;;;;;9.33;8.30;;;17.60;99.90;;;;;;5048939;28;20175;-61
2023/05/21 09:30:52;;;;;;;10.87;8.50;;;17.70;99.90;;;;;;5050379;28;20170;-60
2023/05/21 09:33:24;;;;;;;9.83;8.23;;;17.70;99.90;;;;;;5033783;28;20216;-60
2023/05/21 09:35:50;;;;;;;8.87;7.97;;;17.70;99.90;;;;;;5050582;28;20170;-60
2023/05/21 09:38:16;;;;;;;12.50;10.10;;;17.80;99.90;;;;;;5049999;28;20645;-60
2023/05/21 09:40:45;;;;;;;9.57;8.27;;;17.90;99.90;;;;;;5052038;28;20181;-60
2023/05/21 09:43:17;;;;;;;9.83;8.83;;;17.90;99.90;;;;;;5054775;28;20170;-60
2023/05/21 09:45:53;;;;;;;9.80;8.67;;;18.00;99.90;;;;;;5054921;28;20177;-59
2023/05/21 09:48:33;;;;;;;10.53;8.27;;;18.10;99.90;;;;;;5052987;28;20279;-58
2023/05/21 09:51:17;;;;;;;10.03;8.00;;;18.10;99.90;;;;;;5053323;28;20581;-65
2023/05/21 09:53:58;;;;;;;8.20;7.40;;;18.20;99.90;;;;;;5054593;28;20316;-65
2023/05/21 09:56:25;;;;;;;9.67;7.70;;;18.30;99.90;;;;;;5053916;28;20316;-65
2023/05/21 09:58:55;;;;;;;9.07;8.17;;;18.30;99.90;;;;;;5053083;28;20177;-65
2023/05/21 10:01:23;;;;;;;12.67;9.33;;;18.40;99.90;;;;;;5051467;28;20640;-65
2023/05/21 10:03:58;;;;;;;10.23;9.23;;;18.50;99.90;;;;;;5054372;28;20184;-65
2023/05/21 10:06:33;;;;;;;11.67;8.80;;;18.50;99.90;;;;;;5053597;28;20188;-65
2023/05/21 10:09:05;;;;;;;11.23;9.50;;;18.60;99.90;;;;;;5050320;28;20173;-68
2023/05/21 10:11:32;;;;;;;10.27;9.27;;;18.60;99.90;;;;;;5047236;28;20234;-66
2023/05/21 10:14:12;;;;;;;11.97;9.67;;;18.70;99.90;;;;;;5049323;28;20205;-65
2023/05/21 10:16:38;;;;;;;11.03;8.93;;;18.70;99.90;;;;;;5049048;28;20449;-65
2023/05/21 10:19:09;;;;;;;15.07;11.20;;;18.80;99.90;;;;;;5049454;28;20213;-65
2023/05/21 10:21:36;;;;;;;12.93;10.67;;;18.90;99.90;;;;;;5049171;28;20264;-60
2023/05/21 10:24:03;;;;;;;13.30;10.73;;;18.90;99.90;;;;;;5050042;28;20269;-60
2023/05/21 10:26:29;;;;;;;10.77;9.67;;;19.00;99.90;;;;;;5050646;28;20624;-60
2023/05/21 10:28:57;;;;;;;10.70;9.60;;;19.10;99.90;;;;;;5050313;28;20162;-58
2023/05/21 10:31:23;;;;;;;12.07;10.63;;;19.10;99.90;;;;;;5050081;28;20192;-60
2023/05/21 10:33:51;;;;;;;11.57;9.00;;;19.20;99.90;;;;;;5050194;28;20205;-58
2023/05/21 10:36:18;;;;;;;11.00;9.80;;;19.30;99.90;;;;;;5051182;28;20182;-60
2023/05/21 10:38:45;;;;;;;11.63;10.50;;;19.30;99.90;;;;;;5049224;28;20687;-60
2023/05/21 10:41:14;;;;;;;11.77;10.47;;;19.40;99.90;;;;;;5048533;28;20276;-60
2023/05/21 10:43:44;;;;;;;14.90;9.47;;;19.40;99.90;;;;;;5049214;28;20173;-60
2023/05/21 10:46:47;;;;;;;11.47;8.63;;;19.50;99.90;;;;;;5047888;28;20195;-60
2023/05/21 10:49:43;;;;;;;10.47;9.40;;;19.60;99.90;;;;;;5020852;28;20199;-58
2023/05/21 10:52:36;;;;;;;9.77;8.77;;;19.70;99.90;;;;;;5044831;28;20201;-61
2023/05/21 10:55:16;;;;;;;12.97;8.77;;;19.80;99.90;;;;;;5046695;28;20689;-60
2023/05/21 10:58:11;;;;;;;10.33;7.60;;;19.80;99.90;;;;;;5045147;28;20199;-60
2023/05/21 11:00:37;;;;;;;10.17;8.07;;;20.00;99.90;;;;;;5044149;28;20587;-60
2023/05/21 11:03:05;;;;;;;10.57;8.33;;;20.00;99.90;;;;;;5045077;28;20636;-60
2023/05/21 11:05:49;;;;;;;9.97;8.97;;;20.00;99.90;;;;;;5042575;28;20177;-60
2023/05/21 11:08:22;;;;;;;10.93;7.43;;;20.10;99.90;;;;;;5040358;28;20170;-60
2023/05/21 11:10:56;;;;;;;9.00;7.77;;;20.10;99.90;;;;;;5037323;28;20226;-57
2023/05/21 11:13:25;;;;;;;8.73;7.80;;;20.20;99.90;;;;;;5035329;28;20230;-60
2023/05/21 11:15:56;;;;;;;10.37;7.97;;;20.20;99.90;;;;;;5034500;28;20154;-60
2023/05/21 11:18:23;;;;;;;10.77;7.47;;;20.30;99.90;;;;;;5027124;28;20221;-62
2023/05/21 11:20:51;;;;;;;14.90;8.40;;;20.40;99.90;;;;;;5030984;28;20769;-60
2023/05/21 11:23:20;;;;;;;7.87;6.47;;;20.50;99.90;;;;;;5041611;28;20252;-60
2023/05/21 11:26:03;;;;;;;10.33;7.30;;;20.60;99.90;;;;;;5045415;28;20269;-60
2023/05/21 11:28:35;;;;;;;8.23;6.60;;;20.70;99.90;;;;;;5046044;28;20227;-60
2023/05/21 11:31:24;;;;;;;14.13;8.67;;;20.70;99.90;;;;;;5043458;28;20255;-58
2023/05/21 11:34:13;;;;;;;8.73;6.87;;;20.90;99.90;;;;;;5041148;28;20193;-59
2023/05/21 11:36:49;;;;;;;9.80;6.97;;;21.00;99.90;;;;;;5043637;28;20169;-59
2023/05/21 11:39:25;;;;;;;8.80;6.93;;;21.10;99.90;;;;;;5039751;28;20169;-59
2023/05/21 11:42:01;;;;;;;8.73;6.53;;;21.20;99.90;;;;;;5040386;28;20165;-59
2023/05/21 11:44:47;;;;;;;11.50;7.03;;;21.40;99.90;;;;;;5041405;28;20177;-58
2023/05/21 11:47:20;;;;;;;11.63;7.37;;;21.50;99.90;;;;;;5041912;28;20227;-60
2023/05/21 11:49:49;;;;;;;9.90;7.10;;;21.60;99.90;;;;;;5043425;28;20192;-60
2023/05/21 11:52:20;;;;;;;5.77;5.20;;;21.70;99.90;;;;;;5045118;28;20197;-59
2023/05/21 11:54:56;;;;;;;8.17;5.77;;;21.70;99.90;;;;;;5043614;28;20234;-60
2023/05/21 11:57:30;;;;;;;8.20;5.60;;;21.90;99.90;;;;;;5042655;28;20441;-60
2023/05/21 12:00:01;;;;;;;8.97;6.50;;;22.00;99.90;;;;;;5043790;28;20168;-60
2023/05/21 12:02:34;;;;;;;8.90;6.70;;;22.10;99.90;;;;;;5041202;28;20674;-59
2023/05/21 12:05:05;;;;;;;7.80;6.10;;;22.20;99.90;;;;;;5042597;28;20184;-60
2023/05/21 12:07:35;;;;;;;10.27;6.63;;;22.20;99.90;;;;;;5042023;28;20176;-59
2023/05/21 12:10:04;;;;;;;10.00;6.83;;;22.30;99.90;;;;;;5042894;28;20652;-59
2023/05/21 12:12:34;;;;;;;7.83;6.30;;;22.50;99.90;;;;;;5042475;28;20500;-60
2023/05/21 12:15:04;;;;;;;8.10;5.90;;;22.50;99.90;;;;;;5045962;28;20584;-60
2023/05/21 12:17:34;;;;;;;7.67;6.80;;;22.60;99.90;;;;;;5045517;28;20170;-58
2023/05/21 12:20:01;;;;;;;8.50;6.80;;;22.70;99.90;;;;;;5047389;28;20258;-59
2023/05/21 12:22:28;;;;;;;9.80;6.27;;;22.80;99.90;;;;;;5046771;28;20287;-60
2023/05/21 12:24:57;;;;;;;10.73;6.90;;;22.90;99.90;;;;;;5043941;28;20184;-59
2023/05/21 12:27:23;;;;;;;12.50;7.60;;;23.00;99.90;;;;;;5044764;28;20166;-59
2023/05/21 12:29:53;;;;;;;8.83;7.57;;;23.10;99.90;;;;;;5044085;28;20176;-60
2023/05/21 12:32:20;;;;;;;8.10;7.27;;;23.10;99.90;;;;;;5044341;28;20189;-60
2023/05/21 12:34:51;;;;;;;8.27;6.77;;;23.20;99.90;;;;;;5043913;28;20192;-58
2023/05/21 12:37:26;;;;;;;8.63;7.37;;;23.20;99.90;;;;;;5044764;28;20219;-60
2023/05/21 12:39:54;;;;;;;7.30;6.60;;;23.30;99.90;;;;;;5044862;28;20192;-60
2023/05/21 12:42:29;;;;;;;6.93;6.17;;;23.30;99.90;;;;;;5043285;28;20192;-60
2023/05/21 12:44:57;;;;;;;7.43;6.17;;;23.40;99.90;;;;;;5044661;28;20179;-60
2023/05/21 12:47:26;;;;;;;8.03;7.20;;;23.40;99.90;;;;;;5044394;28;20165;-60
2023/05/21 12:50:00;;;;;;;14.80;7.63;;;23.40;99.90;;;;;;5044581;28;20193;-60